Farson, WY (82932)

4:06 PM MDT on March 31, 2015 (GMT -0600)
WYDOT | | Change Station
CLOSE
Current Station
Personal Weather Station
Location: Farson, WY
Elevation: 6594 ft
Nearby Weather Stations
Active Advisory: Special Statement

Elev 6594 ft 42.11 °N, 109.45 °W | Updated 21 minutes ago

Partly Cloudy
Partly Cloudy
67 °F
Feels Like 67 °F
N
21
Wind Variable Wind from SW
Gusts 35.0 mph

Today
High -- | Low -- °F
--% Chance of Precip.
Yesterday
High -- | Low -- °F
Precip. -- in
7:02 AM 7:42 PM
Waxing Gibbous, 89% visible
Pressure 29.73 in
Visibility 10.0 miles
Clouds Scattered Clouds 12000 ft
Dew Point 12 °F
Humidity 11%
Rainfall in
Snow Depth Not available.
UV 4 out of 12
Pollen 8.60 out of 12
Air Quality Not available.
Flu Activity Not available.
METAR KRKS 312154Z AUTO 24010KT 10SM SCT120 19/M11 A2990 RMK AO2 PK WND 23029/2142 SLP068 T01891111

More Conditions Fewer Conditions

Pressure 29.73 in
Visibility 10.0 miles
Clouds Scattered Clouds 12000 ft
Dew Point 12 °F
Humidity 11%
Rainfall in
Snow Depth Not available.
UV 4 out of 12
Pollen 8.60 out of 12
Air Quality Not available.
Flu Activity Not available.
METAR KRKS 312154Z AUTO 24010KT 10SM SCT120 19/M11 A2990 RMK AO2 PK WND 23029/2142 SLP068 T01891111

More Conditions Fewer Conditions

10-Day Weather Forecast

Almanac

Astronomy

Mar. 31, 2015 Rise Set
Actual Time
Civil Twilight
Nautical Twilight
Astronomical Twilight
Moon
Length of Visible Light
Length of Day
Tomorrow will be .
, % of the Moon is Illuminated

Today's Extremes

State Highs State Lows

Community

WunderPhotos

Upload Photos

1,809,849 photos uploaded!

WunderBlogs® & News

Nearby

Air Quality

  Air Quality AQ Index Pollutant
Not available.

Snow Depth

Station Depth Elevation

Earthquake Activity

City Distance Mag. Time & Date
Minimum magnitude displayed is 2.5.

Coastal Water Temperatures

Place Temperature

Stations

Nearby Weather Stations

Station Location Temp. Windchill Dew Point Humidity Wind Precip. Elev Updated Type
                   
Special Statement
Statement as of 2:02 PM MDT on March 31, 2015

... Strong gusty winds with low relative humidity until 9 PM MDT...

Strong west winds with gusts of 30 to 40 mph with relative
humidity below 15 percent can be expected this afternoon and this
evening across Sublette County. These conditions will make
agricultural burning difficult. Delay agricultural burning until a
day with lighter winds and higher relative humidity.